sensor_id;sensor_type;location;lat;lon;timestamp;P1;P2;P0
50589;PMS7003;36547;50.514;30.840;2024-02-16T00:00:03;10.20;9.70;6.70
50589;PMS7003;36547;50.514;30.840;2024-02-16T00:01:08;15.00;10.00;6.70
50589;PMS7003;36547;50.514;30.840;2024-02-16T00:02:10;11.90;9.50;5.30
50589;PMS7003;36547;50.514;30.840;2024-02-16T00:03:12;9.50;9.10;5.60
50589;PMS7003;36547;50.514;30.840;2024-02-16T00:04:15;8.50;8.50;6.20
50589;PMS7003;36547;50.514;30.840;2024-02-16T00:05:17;10.00;6.80;4.60
50589;PMS7003;36547;50.514;30.840;2024-02-16T00:06:20;7.10;5.50;4.50
50589;PMS7003;36547;50.514;30.840;2024-02-16T00:07:22;10.80;7.50;4.80
50589;PMS7003;36547;50.514;30.840;2024-02-16T00:08:25;8.80;8.50;5.50
50589;PMS7003;36547;50.514;30.840;2024-02-16T00:09:27;12.00;9.10;4.70
50589;PMS7003;36547;50.514;30.840;2024-02-16T00:10:30;11.09;8.36;6.18
50589;PMS7003;36547;50.514;30.840;2024-02-16T00:11:33;9.30;8.60;5.00
50589;PMS7003;36547;50.514;30.840;2024-02-16T00:12:36;10.50;8.80;5.40
50589;PMS7003;36547;50.514;30.840;2024-02-16T00:13:41;10.10;9.40;6.10
50589;PMS7003;36547;50.514;30.840;2024-02-16T00:14:43;9.60;8.60;5.60
50589;PMS7003;36547;50.514;30.840;2024-02-16T00:15:45;10.20;8.40;5.90
50589;PMS7003;36547;50.514;30.840;2024-02-16T00:16:48;10.00;8.10;5.50
50589;PMS7003;36547;50.514;30.840;2024-02-16T00:17:50;12.60;10.90;7.50
50589;PMS7003;36547;50.514;30.840;2024-02-16T00:18:52;11.50;8.90;4.70
50589;PMS7003;36547;50.514;30.840;2024-02-16T00:19:56;9.45;7.82;5.27
50589;PMS7003;36547;50.514;30.840;2024-02-16T00:20:59;12.70;8.90;5.50
50589;PMS7003;36547;50.514;30.840;2024-02-16T00:22:01;11.80;9.70;6.90
50589;PMS7003;36547;50.514;30.840;2024-02-16T00:23:03;13.90;10.90;7.10
50589;PMS7003;36547;50.514;30.840;2024-02-16T00:24:06;8.70;7.50;6.00
50589;PMS7003;36547;50.514;30.840;2024-02-16T00:25:09;11.45;10.00;5.82
50589;PMS7003;36547;50.514;30.840;2024-02-16T00:26:12;14.10;10.20;6.10
50589;PMS7003;36547;50.514;30.840;2024-02-16T00:27:14;10.20;9.40;5.40
50589;PMS7003;36547;50.514;30.840;2024-02-16T00:28:17;10.80;8.60;5.90
50589;PMS7003;36547;50.514;30.840;2024-02-16T00:29:21;11.18;10.18;6.00
50589;PMS7003;36547;50.514;30.840;2024-02-16T00:30:23;14.70;10.80;6.50
50589;PMS7003;36547;50.514;30.840;2024-02-16T00:31:25;9.60;9.00;5.10
50589;PMS7003;36547;50.514;30.840;2024-02-16T00:32:27;9.10;8.00;5.00
50589;PMS7003;36547;50.514;30.840;2024-02-16T00:33:31;13.30;9.60;7.10
50589;PMS7003;36547;50.514;30.840;2024-02-16T00:34:37;11.60;9.00;6.70
50589;PMS7003;36547;50.514;30.840;2024-02-16T00:35:41;15.40;10.20;5.80
50589;PMS7003;36547;50.514;30.840;2024-02-16T00:36:44;11.30;9.00;5.30
50589;PMS7003;36547;50.514;30.840;2024-02-16T00:37:46;9.56;8.33;5.00
50589;PMS7003;36547;50.514;30.840;2024-02-16T00:38:48;12.40;8.50;5.60
50589;PMS7003;36547;50.514;30.840;2024-02-16T00:39:51;8.40;8.40;6.00
50589;PMS7003;36547;50.514;30.840;2024-02-16T00:40:54;9.00;8.20;5.60
50589;PMS7003;36547;50.514;30.840;2024-02-16T00:41:56;9.60;9.30;6.10
50589;PMS7003;36547;50.514;30.840;2024-02-16T00:42:58;10.60;9.60;6.80
50589;PMS7003;36547;50.514;30.840;2024-02-16T00:44:00;11.10;9.00;7.10
50589;PMS7003;36547;50.514;30.840;2024-02-16T00:45:03;9.40;9.40;6.90
50589;PMS7003;36547;50.514;30.840;2024-02-16T00:46:06;11.80;8.50;5.10
50589;PMS7003;36547;50.514;30.840;2024-02-16T00:47:08;11.10;9.10;6.70
50589;PMS7003;36547;50.514;30.840;2024-02-16T00:48:11;10.60;8.70;5.40
50589;PMS7003;36547;50.514;30.840;2024-02-16T00:49:14;10.82;9.09;7.18
50589;PMS7003;36547;50.514;30.840;2024-02-16T00:50:17;5.10;1.90;0.20
50589;PMS7003;36547;50.514;30.840;2024-02-16T00:51:19;11.50;10.30;6.20
50589;PMS7003;36547;50.514;30.840;2024-02-16T00:52:22;9.80;9.40;6.30
50589;PMS7003;36547;50.514;30.840;2024-02-16T00:53:24;10.00;7.36;4.45
50589;PMS7003;36547;50.514;30.840;2024-02-16T00:54:27;12.90;8.30;5.90
50589;PMS7003;36547;50.514;30.840;2024-02-16T00:55:32;12.40;10.00;6.10
50589;PMS7003;36547;50.514;30.840;2024-02-16T00:56:35;9.00;7.55;4.91
50589;PMS7003;36547;50.514;30.840;2024-02-16T00:57:38;11.60;10.30;6.10
50589;PMS7003;36547;50.514;30.840;2024-02-16T00:58:40;12.20;9.90;5.20
50589;PMS7003;36547;50.514;30.840;2024-02-16T00:59:43;9.00;9.00;5.70
50589;PMS7003;36547;50.514;30.840;2024-02-16T01:00:46;11.50;8.70;5.90
50589;PMS7003;36547;50.514;30.840;2024-02-16T01:01:49;10.09;8.00;5.00
50589;PMS7003;36547;50.514;30.840;2024-02-16T01:02:51;12.20;8.90;6.70
50589;PMS7003;36547;50.514;30.840;2024-02-16T01:03:54;8.10;7.60;5.40
50589;PMS7003;36547;50.514;30.840;2024-02-16T01:04:56;11.00;9.20;5.30
50589;PMS7003;36547;50.514;30.840;2024-02-16T01:05:58;8.90;7.00;4.30
50589;PMS7003;36547;50.514;30.840;2024-02-16T01:07:01;9.90;9.20;5.70
50589;PMS7003;36547;50.514;30.840;2024-02-16T01:08:03;11.50;8.80;5.40
50589;PMS7003;36547;50.514;30.840;2024-02-16T01:09:06;12.40;8.50;6.80
50589;PMS7003;36547;50.514;30.840;2024-02-16T01:10:09;11.50;8.00;5.20
50589;PMS7003;36547;50.514;30.840;2024-02-16T01:11:12;8.10;7.60;4.90
50589;PMS7003;36547;50.514;30.840;2024-02-16T01:12:14;10.80;7.40;5.10
50589;PMS7003;36547;50.514;30.840;2024-02-16T01:13:17;8.00;8.00;4.50
50589;PMS7003;36547;50.514;30.840;2024-02-16T01:14:19;9.80;7.60;4.60
50589;PMS7003;36547;50.514;30.840;2024-02-16T01:15:22;10.30;9.70;5.50
50589;PMS7003;36547;50.514;30.840;2024-02-16T01:16:24;9.40;8.90;5.30
50589;PMS7003;36547;50.514;30.840;2024-02-16T01:17:27;9.10;9.10;5.60
50589;PMS7003;36547;50.514;30.840;2024-02-16T01:18:29;10.50;8.30;5.00
50589;PMS7003;36547;50.514;30.840;2024-02-16T01:19:32;8.91;8.73;5.73
50589;PMS7003;36547;50.514;30.840;2024-02-16T01:20:34;9.80;8.40;6.80
50589;PMS7003;36547;50.514;30.840;2024-02-16T01:21:37;5.50;5.50;4.50
50589;PMS7003;36547;50.514;30.840;2024-02-16T01:22:39;8.80;5.90;4.20
50589;PMS7003;36547;50.514;30.840;2024-02-16T01:23:42;7.73;5.73;4.45
50589;PMS7003;36547;50.514;30.840;2024-02-16T01:24:44;8.90;7.50;4.80
50589;PMS7003;36547;50.514;30.840;2024-02-16T01:25:47;8.40;5.00;4.20
50589;PMS7003;36547;50.514;30.840;2024-02-16T01:26:50;6.70;5.60;4.20
50589;PMS7003;36547;50.514;30.840;2024-02-16T01:27:52;5.20;5.00;3.90
50589;PMS7003;36547;50.514;30.840;2024-02-16T01:28:54;8.40;5.30;3.30
50589;PMS7003;36547;50.514;30.840;2024-02-16T01:29:57;6.30;5.00;3.80
50589;PMS7003;36547;50.514;30.840;2024-02-16T01:30:59;11.20;7.40;4.20
50589;PMS7003;36547;50.514;30.840;2024-02-16T01:32:02;8.60;7.20;5.20
50589;PMS7003;36547;50.514;30.840;2024-02-16T01:33:04;8.10;7.60;4.30
50589;PMS7003;36547;50.514;30.840;2024-02-16T01:34:07;2.91;2.91;1.18
50589;PMS7003;36547;50.514;30.840;2024-02-16T01:35:10;7.60;6.20;4.30
50589;PMS7003;36547;50.514;30.840;2024-02-16T01:36:12;9.90;7.00;4.60
50589;PMS7003;36547;50.514;30.840;2024-02-16T01:37:15;6.50;5.90;4.00
50589;PMS7003;36547;50.514;30.840;2024-02-16T01:38:17;8.73;6.73;4.64
50589;PMS7003;36547;50.514;30.840;2024-02-16T01:39:20;6.50;6.50;5.40
50589;PMS7003;36547;50.514;30.840;2024-02-16T01:40:22;5.90;5.90;4.50
50589;PMS7003;36547;50.514;30.840;2024-02-16T01:41:24;7.90;5.70;4.00
50589;PMS7003;36547;50.514;30.840;2024-02-16T01:42:27;6.00;5.50;4.00
50589;PMS7003;36547;50.514;30.840;2024-02-16T01:43:29;10.60;10.00;4.90
50589;PMS7003;36547;50.514;30.840;2024-02-16T01:44:32;7.70;6.20;4.10
50589;PMS7003;36547;50.514;30.840;2024-02-16T01:45:34;8.50;6.10;4.40
50589;PMS7003;36547;50.514;30.840;2024-02-16T01:46:37;8.45;5.91;4.18
50589;PMS7003;36547;50.514;30.840;2024-02-16T01:47:40;9.30;6.80;4.70
50589;PMS7003;36547;50.514;30.840;2024-02-16T01:48:45;9.20;6.00;3.80
50589;PMS7003;36547;50.514;30.840;2024-02-16T01:49:48;9.70;7.80;4.20
50589;PMS7003;36547;50.514;30.840;2024-02-16T01:50:51;5.80;5.80;4.10
50589;PMS7003;36547;50.514;30.840;2024-02-16T01:51:55;5.50;5.50;4.30
50589;PMS7003;36547;50.514;30.840;2024-02-16T01:52:58;6.50;5.00;3.80
50589;PMS7003;36547;50.514;30.840;2024-02-16T01:54:00;3.40;0.70;0.20
50589;PMS7003;36547;50.514;30.840;2024-02-16T01:55:04;5.40;5.30;3.90
50589;PMS7003;36547;50.514;30.840;2024-02-16T01:56:07;5.30;4.70;3.40
50589;PMS7003;36547;50.514;30.840;2024-02-16T01:57:10;6.20;6.20;4.30
50589;PMS7003;36547;50.514;30.840;2024-02-16T01:58:12;7.40;5.70;4.50
50589;PMS7003;36547;50.514;30.840;2024-02-16T01:59:15;9.60;6.00;3.90
50589;PMS7003;36547;50.514;30.840;2024-02-16T02:00:18;5.60;4.30;3.60
50589;PMS7003;36547;50.514;30.840;2024-02-16T02:01:21;7.10;6.20;3.80
50589;PMS7003;36547;50.514;30.840;2024-02-16T02:02:23;7.60;5.20;4.20
50589;PMS7003;36547;50.514;30.840;2024-02-16T02:03:25;4.60;4.60;4.30
50589;PMS7003;36547;50.514;30.840;2024-02-16T02:04:28;5.30;5.00;3.80
50589;PMS7003;36547;50.514;30.840;2024-02-16T02:05:31;7.30;4.80;3.80
50589;PMS7003;36547;50.514;30.840;2024-02-16T02:06:34;5.40;5.40;3.50
50589;PMS7003;36547;50.514;30.840;2024-02-16T02:07:36;8.10;5.70;4.00
50589;PMS7003;36547;50.514;30.840;2024-02-16T02:08:39;6.20;5.50;4.40
50589;PMS7003;36547;50.514;30.840;2024-02-16T02:09:41;6.80;6.30;4.00
50589;PMS7003;36547;50.514;30.840;2024-02-16T02:10:45;5.60;5.30;3.60
50589;PMS7003;36547;50.514;30.840;2024-02-16T02:11:47;5.90;4.90;4.00
50589;PMS7003;36547;50.514;30.840;2024-02-16T02:12:50;9.20;7.00;4.80
50589;PMS7003;36547;50.514;30.840;2024-02-16T02:13:53;5.40;4.40;3.40
50589;PMS7003;36547;50.514;30.840;2024-02-16T02:14:55;8.00;5.40;4.00
50589;PMS7003;36547;50.514;30.840;2024-02-16T02:15:58;6.60;5.30;4.00
50589;PMS7003;36547;50.514;30.840;2024-02-16T02:17:00;6.90;5.00;4.10
50589;PMS7003;36547;50.514;30.840;2024-02-16T02:18:04;4.40;4.40;3.90
50589;PMS7003;36547;50.514;30.840;2024-02-16T02:19:06;5.40;4.40;3.90
50589;PMS7003;36547;50.514;30.840;2024-02-16T02:20:10;5.30;4.10;3.10
50589;PMS7003;36547;50.514;30.840;2024-02-16T02:21:13;4.00;4.00;3.00
50589;PMS7003;36547;50.514;30.840;2024-02-16T02:22:15;6.60;5.70;3.90
50589;PMS7003;36547;50.514;30.840;2024-02-16T02:23:18;6.80;5.10;3.30
50589;PMS7003;36547;50.514;30.840;2024-02-16T02:24:21;4.30;3.70;2.90
50589;PMS7003;36547;50.514;30.840;2024-02-16T02:25:26;3.70;3.50;2.90
50589;PMS7003;36547;50.514;30.840;2024-02-16T02:26:31;5.70;5.10;3.80
50589;PMS7003;36547;50.514;30.840;2024-02-16T02:27:33;4.90;4.10;3.60
50589;PMS7003;36547;50.514;30.840;2024-02-16T02:28:36;5.00;4.50;3.20
50589;PMS7003;36547;50.514;30.840;2024-02-16T02:29:38;7.90;4.40;3.50
50589;PMS7003;36547;50.514;30.840;2024-02-16T02:30:43;4.20;4.00;3.70
50589;PMS7003;36547;50.514;30.840;2024-02-16T02:31:46;4.40;4.00;2.50
50589;PMS7003;36547;50.514;30.840;2024-02-16T02:32:49;5.40;4.30;3.30
50589;PMS7003;36547;50.514;30.840;2024-02-16T02:33:52;7.70;4.40;3.20
50589;PMS7003;36547;50.514;30.840;2024-02-16T02:34:55;4.10;3.70;2.90
50589;PMS7003;36547;50.514;30.840;2024-02-16T02:35:57;5.40;4.20;3.50
50589;PMS7003;36547;50.514;30.840;2024-02-16T02:37:00;7.90;5.30;4.20
50589;PMS7003;36547;50.514;30.840;2024-02-16T02:38:02;3.30;3.30;2.80
50589;PMS7003;36547;50.514;30.840;2024-02-16T02:39:05;5.64;5.09;3.91
50589;PMS7003;36547;50.514;30.840;2024-02-16T02:40:07;4.00;3.50;2.70
50589;PMS7003;36547;50.514;30.840;2024-02-16T02:41:10;4.20;3.80;2.80
50589;PMS7003;36547;50.514;30.840;2024-02-16T02:42:13;4.20;3.60;3.00
50589;PMS7003;36547;50.514;30.840;2024-02-16T02:43:15;4.00;3.70;3.10
50589;PMS7003;36547;50.514;30.840;2024-02-16T02:44:18;3.70;3.70;2.90
50589;PMS7003;36547;50.514;30.840;2024-02-16T02:45:20;3.90;3.70;2.40
50589;PMS7003;36547;50.514;30.840;2024-02-16T02:46:23;4.90;4.00;3.00
50589;PMS7003;36547;50.514;30.840;2024-02-16T02:47:26;3.60;3.60;3.10
50589;PMS7003;36547;50.514;30.840;2024-02-16T02:48:28;5.10;5.10;4.40
50589;PMS7003;36547;50.514;30.840;2024-02-16T02:49:31;4.60;3.80;2.70
50589;PMS7003;36547;50.514;30.840;2024-02-16T02:50:33;4.40;4.40;3.60
50589;PMS7003;36547;50.514;30.840;2024-02-16T02:51:35;5.50;4.60;3.80
50589;PMS7003;36547;50.514;30.840;2024-02-16T02:52:37;4.20;3.90;3.50
50589;PMS7003;36547;50.514;30.840;2024-02-16T02:53:40;4.50;4.20;3.50
50589;PMS7003;36547;50.514;30.840;2024-02-16T02:54:42;6.30;4.10;3.00
50589;PMS7003;36547;50.514;30.840;2024-02-16T02:55:45;7.10;4.40;3.70
50589;PMS7003;36547;50.514;30.840;2024-02-16T02:56:48;5.00;4.30;3.50
50589;PMS7003;36547;50.514;30.840;2024-02-16T02:57:51;2.50;2.50;2.00
50589;PMS7003;36547;50.514;30.840;2024-02-16T02:58:53;4.00;4.00;3.10
50589;PMS7003;36547;50.514;30.840;2024-02-16T03:01:19;6.30;6.30;4.20
50589;PMS7003;36547;50.514;30.840;2024-02-16T03:02:21;5.20;5.20;3.80
50589;PMS7003;36547;50.514;30.840;2024-02-16T03:03:24;7.60;4.10;3.00
50589;PMS7003;36547;50.514;30.840;2024-02-16T03:04:26;5.90;4.20;3.30
50589;PMS7003;36547;50.514;30.840;2024-02-16T03:05:28;2.70;2.70;1.80
50589;PMS7003;36547;50.514;30.840;2024-02-16T03:06:31;5.20;4.90;3.40
50589;PMS7003;36547;50.514;30.840;2024-02-16T03:07:33;5.10;4.00;3.30
50589;PMS7003;36547;50.514;30.840;2024-02-16T03:08:36;5.80;5.10;3.20
50589;PMS7003;36547;50.514;30.840;2024-02-16T03:09:40;4.00;4.00;3.09
50589;PMS7003;36547;50.514;30.840;2024-02-16T03:10:43;4.90;4.00;2.70
50589;PMS7003;36547;50.514;30.840;2024-02-16T03:11:45;5.50;5.50;3.70
50589;PMS7003;36547;50.514;30.840;2024-02-16T03:12:48;4.10;3.20;2.60
50589;PMS7003;36547;50.514;30.840;2024-02-16T03:13:51;4.40;3.90;2.30
50589;PMS7003;36547;50.514;30.840;2024-02-16T03:14:53;5.40;4.90;3.70
50589;PMS7003;36547;50.514;30.840;2024-02-16T03:15:55;6.20;5.10;3.40
50589;PMS7003;36547;50.514;30.840;2024-02-16T03:16:58;4.50;4.50;3.30
50589;PMS7003;36547;50.514;30.840;2024-02-16T03:18:00;7.10;4.70;3.00
50589;PMS7003;36547;50.514;30.840;2024-02-16T03:19:05;4.18;3.18;2.82
50589;PMS7003;36547;50.514;30.840;2024-02-16T03:20:09;5.10;4.20;3.50
50589;PMS7003;36547;50.514;30.840;2024-02-16T03:21:14;5.36;5.36;3.91
50589;PMS7003;36547;50.514;30.840;2024-02-16T03:22:17;4.10;3.40;2.40
50589;PMS7003;36547;50.514;30.840;2024-02-16T03:23:20;6.20;5.00;2.90
50589;PMS7003;36547;50.514;30.840;2024-02-16T03:24:22;3.56;3.56;2.78
50589;PMS7003;36547;50.514;30.840;2024-02-16T03:25:26;5.40;3.40;2.70
50589;PMS7003;36547;50.514;30.840;2024-02-16T03:26:28;5.20;5.20;4.30
50589;PMS7003;36547;50.514;30.840;2024-02-16T03:27:30;4.80;4.80;3.50
50589;PMS7003;36547;50.514;30.840;2024-02-16T03:28:33;5.40;5.40;3.70
50589;PMS7003;36547;50.514;30.840;2024-02-16T03:29:35;6.70;5.40;4.00
50589;PMS7003;36547;50.514;30.840;2024-02-16T03:30:39;5.70;5.00;3.60
50589;PMS7003;36547;50.514;30.840;2024-02-16T03:31:43;9.10;5.40;3.40
50589;PMS7003;36547;50.514;30.840;2024-02-16T03:32:49;6.80;6.00;4.20
50589;PMS7003;36547;50.514;30.840;2024-02-16T03:33:51;5.60;4.90;4.10
50589;PMS7003;36547;50.514;30.840;2024-02-16T03:34:56;5.20;5.20;3.30
50589;PMS7003;36547;50.514;30.840;2024-02-16T03:35:59;5.30;5.00;4.00
50589;PMS7003;36547;50.514;30.840;2024-02-16T03:37:01;5.00;4.40;3.70
50589;PMS7003;36547;50.514;30.840;2024-02-16T03:38:04;5.50;5.50;3.50
50589;PMS7003;36547;50.514;30.840;2024-02-16T03:39:07;5.00;4.20;2.50
50589;PMS7003;36547;50.514;30.840;2024-02-16T03:40:11;6.60;5.50;4.10
50589;PMS7003;36547;50.514;30.840;2024-02-16T03:41:14;8.70;6.40;4.60
50589;PMS7003;36547;50.514;30.840;2024-02-16T03:42:19;6.90;5.80;3.90
50589;PMS7003;36547;50.514;30.840;2024-02-16T03:43:21;5.10;4.20;3.20
50589;PMS7003;36547;50.514;30.840;2024-02-16T03:44:23;8.22;4.67;3.11
50589;PMS7003;36547;50.514;30.840;2024-02-16T03:45:25;4.50;4.50;3.60
50589;PMS7003;36547;50.514;30.840;2024-02-16T03:46:28;3.70;3.70;3.30
50589;PMS7003;36547;50.514;30.840;2024-02-16T03:47:30;7.10;5.10;3.60
50589;PMS7003;36547;50.514;30.840;2024-02-16T03:48:33;6.70;5.60;3.80
50589;PMS7003;36547;50.514;30.840;2024-02-16T03:49:35;5.00;4.10;3.10
50589;PMS7003;36547;50.514;30.840;2024-02-16T03:50:37;6.80;5.90;4.10
50589;PMS7003;36547;50.514;30.840;2024-02-16T03:51:40;5.70;4.90;3.60
50589;PMS7003;36547;50.514;30.840;2024-02-16T03:52:42;7.40;6.10;4.70
50589;PMS7003;36547;50.514;30.840;2024-02-16T03:53:44;7.00;5.22;4.22
50589;PMS7003;36547;50.514;30.840;2024-02-16T03:54:48;5.70;5.70;3.80
50589;PMS7003;36547;50.514;30.840;2024-02-16T03:55:50;5.20;5.20;4.20
50589;PMS7003;36547;50.514;30.840;2024-02-16T03:56:53;5.90;3.70;3.50
50589;PMS7003;36547;50.514;30.840;2024-02-16T03:57:56;7.20;4.00;3.00
50589;PMS7003;36547;50.514;30.840;2024-02-16T03:58:58;6.00;5.40;4.20
50589;PMS7003;36547;50.514;30.840;2024-02-16T04:00:00;5.10;5.10;4.00
50589;PMS7003;36547;50.514;30.840;2024-02-16T04:01:05;8.70;5.50;4.30
50589;PMS7003;36547;50.514;30.840;2024-02-16T04:02:08;4.00;3.40;2.60
50589;PMS7003;36547;50.514;30.840;2024-02-16T04:03:10;3.50;3.50;3.50
50589;PMS7003;36547;50.514;30.840;2024-02-16T04:04:12;5.90;5.40;4.20
50589;PMS7003;36547;50.514;30.840;2024-02-16T04:05:15;5.91;5.64;4.27
50589;PMS7003;36547;50.514;30.840;2024-02-16T04:06:17;5.90;5.90;4.30
50589;PMS7003;36547;50.514;30.840;2024-02-16T04:07:20;5.70;5.70;4.60
50589;PMS7003;36547;50.514;30.840;2024-02-16T04:08:22;9.40;8.20;5.30
50589;PMS7003;36547;50.514;30.840;2024-02-16T04:09:25;7.50;5.80;3.90
50589;PMS7003;36547;50.514;30.840;2024-02-16T04:10:27;5.50;5.50;3.80
50589;PMS7003;36547;50.514;30.840;2024-02-16T04:11:30;7.00;5.40;4.10
50589;PMS7003;36547;50.514;30.840;2024-02-16T04:12:32;8.20;7.30;4.20
50589;PMS7003;36547;50.514;30.840;2024-02-16T04:13:35;6.80;4.60;3.40
50589;PMS7003;36547;50.514;30.840;2024-02-16T04:14:37;7.70;6.30;4.90
50589;PMS7003;36547;50.514;30.840;2024-02-16T04:15:39;8.50;6.60;4.60
50589;PMS7003;36547;50.514;30.840;2024-02-16T04:16:43;5.30;5.30;4.00
50589;PMS7003;36547;50.514;30.840;2024-02-16T04:17:46;7.80;5.00;3.90
50589;PMS7003;36547;50.514;30.840;2024-02-16T04:18:49;4.80;4.20;3.50
50589;PMS7003;36547;50.514;30.840;2024-02-16T04:19:51;8.90;6.60;4.30
50589;PMS7003;36547;50.514;30.840;2024-02-16T04:20:54;7.55;7.55;4.64
50589;PMS7003;36547;50.514;30.840;2024-02-16T04:21:56;8.50;5.30;3.00
50589;PMS7003;36547;50.514;30.840;2024-02-16T04:23:01;6.40;5.20;3.60
50589;PMS7003;36547;50.514;30.840;2024-02-16T04:24:03;5.80;5.80;4.30
50589;PMS7003;36547;50.514;30.840;2024-02-16T04:25:06;7.00;6.20;4.30
50589;PMS7003;36547;50.514;30.840;2024-02-16T04:26:09;5.10;4.40;3.20
50589;PMS7003;36547;50.514;30.840;2024-02-16T04:27:12;4.40;3.70;2.70
50589;PMS7003;36547;50.514;30.840;2024-02-16T04:28:14;6.50;5.00;4.00
50589;PMS7003;36547;50.514;30.840;2024-02-16T04:29:17;5.80;5.80;4.80
50589;PMS7003;36547;50.514;30.840;2024-02-16T04:30:20;6.36;6.36;4.09
50589;PMS7003;36547;50.514;30.840;2024-02-16T04:31:22;6.30;5.20;3.80
50589;PMS7003;36547;50.514;30.840;2024-02-16T04:32:24;6.30;6.30;4.00
50589;PMS7003;36547;50.514;30.840;2024-02-16T04:33:26;4.78;3.89;2.67
50589;PMS7003;36547;50.514;30.840;2024-02-16T04:34:29;9.50;6.60;4.00
50589;PMS7003;36547;50.514;30.840;2024-02-16T04:35:31;6.30;3.80;3.20
50589;PMS7003;36547;50.514;30.840;2024-02-16T04:36:33;6.80;5.70;4.60
50589;PMS7003;36547;50.514;30.840;2024-02-16T04:37:36;8.00;7.60;4.70
50589;PMS7003;36547;50.514;30.840;2024-02-16T04:38:38;9.90;7.10;5.30
50589;PMS7003;36547;50.514;30.840;2024-02-16T04:39:41;4.90;4.90;3.30
50589;PMS7003;36547;50.514;30.840;2024-02-16T04:40:43;7.70;7.10;5.10
50589;PMS7003;36547;50.514;30.840;2024-02-16T04:41:46;6.00;5.30;3.90
50589;PMS7003;36547;50.514;30.840;2024-02-16T04:42:48;8.10;7.40;5.30
50589;PMS7003;36547;50.514;30.840;2024-02-16T04:43:51;10.00;8.40;4.80
50589;PMS7003;36547;50.514;30.840;2024-02-16T04:44:53;6.60;4.70;3.40
50589;PMS7003;36547;50.514;30.840;2024-02-16T04:45:56;7.00;5.82;4.09
50589;PMS7003;36547;50.514;30.840;2024-02-16T04:46:59;9.00;5.20;4.20
50589;PMS7003;36547;50.514;30.840;2024-02-16T04:48:02;9.40;7.10;5.40
50589;PMS7003;36547;50.514;30.840;2024-02-16T04:49:20;9.10;7.30;4.90
50589;PMS7003;36547;50.514;30.840;2024-02-16T04:50:23;8.50;6.60;4.40
50589;PMS7003;36547;50.514;30.840;2024-02-16T04:51:26;9.20;5.90;4.00
50589;PMS7003;36547;50.514;30.840;2024-02-16T04:52:28;6.90;5.70;4.50
50589;PMS7003;36547;50.514;30.840;2024-02-16T04:53:32;9.30;6.00;4.50
50589;PMS7003;36547;50.514;30.840;2024-02-16T04:54:35;9.30;6.10;4.80
50589;PMS7003;36547;50.514;30.840;2024-02-16T04:55:37;5.20;5.20;4.00
50589;PMS7003;36547;50.514;30.840;2024-02-16T04:56:40;7.20;6.50;4.10
50589;PMS7003;36547;50.514;30.840;2024-02-16T04:57:42;8.20;7.00;4.70
50589;PMS7003;36547;50.514;30.840;2024-02-16T04:58:45;5.10;5.10;3.80
50589;PMS7003;36547;50.514;30.840;2024-02-16T04:59:47;9.80;5.80;4.80
50589;PMS7003;36547;50.514;30.840;2024-02-16T05:00:50;6.10;5.90;3.90
50589;PMS7003;36547;50.514;30.840;2024-02-16T05:01:52;7.80;4.30;3.70
50589;PMS7003;36547;50.514;30.840;2024-02-16T05:02:54;7.40;5.70;4.20
50589;PMS7003;36547;50.514;30.840;2024-02-16T05:04:00;7.60;7.60;4.80
50589;PMS7003;36547;50.514;30.840;2024-02-16T05:05:03;8.80;5.80;3.90
50589;PMS7003;36547;50.514;30.840;2024-02-16T05:06:07;8.10;4.70;3.40
50589;PMS7003;36547;50.514;30.840;2024-02-16T05:07:09;6.10;5.30;3.90
50589;PMS7003;36547;50.514;30.840;2024-02-16T05:08:12;9.10;5.80;4.10
50589;PMS7003;36547;50.514;30.840;2024-02-16T05:09:14;8.80;6.70;4.50
50589;PMS7003;36547;50.514;30.840;2024-02-16T05:10:17;7.70;7.20;5.00
50589;PMS7003;36547;50.514;30.840;2024-02-16T05:11:19;8.40;5.70;4.40
50589;PMS7003;36547;50.514;30.840;2024-02-16T05:12:21;9.30;8.10;4.90
50589;PMS7003;36547;50.514;30.840;2024-02-16T05:13:23;7.30;5.60;4.30
50589;PMS7003;36547;50.514;30.840;2024-02-16T05:14:26;7.50;6.60;4.30
50589;PMS7003;36547;50.514;30.840;2024-02-16T05:15:29;8.00;7.30;4.70
50589;PMS7003;36547;50.514;30.840;2024-02-16T05:16:31;7.00;7.00;4.70
50589;PMS7003;36547;50.514;30.840;2024-02-16T05:17:34;7.80;6.60;4.30
50589;PMS7003;36547;50.514;30.840;2024-02-16T05:18:37;3.40;2.10;1.70
50589;PMS7003;36547;50.514;30.840;2024-02-16T05:19:39;7.80;5.90;4.10
50589;PMS7003;36547;50.514;30.840;2024-02-16T05:20:42;10.60;6.00;3.80
50589;PMS7003;36547;50.514;30.840;2024-02-16T05:21:45;5.91;4.82;4.00
50589;PMS7003;36547;50.514;30.840;2024-02-16T05:22:47;6.00;4.50;3.20
50589;PMS7003;36547;50.514;30.840;2024-02-16T05:23:49;8.70;6.50;4.90
50589;PMS7003;36547;50.514;30.840;2024-02-16T05:24:51;9.50;7.30;3.80
50589;PMS7003;36547;50.514;30.840;2024-02-16T05:25:53;7.40;7.00;4.30
50589;PMS7003;36547;50.514;30.840;2024-02-16T05:26:56;8.00;4.80;3.70
50589;PMS7003;36547;50.514;30.840;2024-02-16T05:27:58;7.80;5.30;3.20
50589;PMS7003;36547;50.514;30.840;2024-02-16T05:29:01;7.64;5.64;3.91
50589;PMS7003;36547;50.514;30.840;2024-02-16T05:30:04;6.30;5.30;3.80
50589;PMS7003;36547;50.514;30.840;2024-02-16T05:31:15;7.30;6.30;4.70
50589;PMS7003;36547;50.514;30.840;2024-02-16T05:32:20;6.80;4.80;4.20
50589;PMS7003;36547;50.514;30.840;2024-02-16T05:33:23;9.60;5.80;3.10
50589;PMS7003;36547;50.514;30.840;2024-02-16T05:34:26;11.00;6.00;3.70
50589;PMS7003;36547;50.514;30.840;2024-02-16T05:35:28;4.80;4.80;4.00
50589;PMS7003;36547;50.514;30.840;2024-02-16T05:36:31;8.20;6.00;4.30
50589;PMS7003;36547;50.514;30.840;2024-02-16T05:37:33;4.60;4.40;3.10
50589;PMS7003;36547;50.514;30.840;2024-02-16T05:38:35;4.44;4.44;3.44
50589;PMS7003;36547;50.514;30.840;2024-02-16T05:39:38;7.10;5.90;4.30
50589;PMS7003;36547;50.514;30.840;2024-02-16T05:40:41;6.60;4.30;2.90
50589;PMS7003;36547;50.514;30.840;2024-02-16T05:41:43;5.70;5.30;3.90
50589;PMS7003;36547;50.514;30.840;2024-02-16T05:42:46;5.90;4.40;3.50
50589;PMS7003;36547;50.514;30.840;2024-02-16T05:43:49;7.20;4.70;3.30
50589;PMS7003;36547;50.514;30.840;2024-02-16T05:44:52;5.90;5.90;4.20
50589;PMS7003;36547;50.514;30.840;2024-02-16T05:45:54;7.30;6.20;4.00
50589;PMS7003;36547;50.514;30.840;2024-02-16T05:46:57;5.90;5.90;4.20
50589;PMS7003;36547;50.514;30.840;2024-02-16T05:47:59;8.78;6.11;4.00
50589;PMS7003;36547;50.514;30.840;2024-02-16T05:49:02;6.60;6.40;4.00
50589;PMS7003;36547;50.514;30.840;2024-02-16T05:50:05;7.90;7.10;3.80
50589;PMS7003;36547;50.514;30.840;2024-02-16T05:51:08;9.00;5.91;3.73
50589;PMS7003;36547;50.514;30.840;2024-02-16T05:52:11;8.18;5.73;3.82
50589;PMS7003;36547;50.514;30.840;2024-02-16T05:53:13;11.00;6.90;3.50
50589;PMS7003;36547;50.514;30.840;2024-02-16T05:54:16;8.10;7.80;5.10
50589;PMS7003;36547;50.514;30.840;2024-02-16T05:55:21;13.40;8.70;4.80
50589;PMS7003;36547;50.514;30.840;2024-02-16T05:56:23;5.90;5.50;4.00
50589;PMS7003;36547;50.514;30.840;2024-02-16T05:57:25;7.78;7.22;5.33
50589;PMS7003;36547;50.514;30.840;2024-02-16T05:58:27;7.33;7.33;4.78
50589;PMS7003;36547;50.514;30.840;2024-02-16T05:59:29;7.40;5.90;4.10
50589;PMS7003;36547;50.514;30.840;2024-02-16T06:00:33;4.60;4.00;3.00
50589;PMS7003;36547;50.514;30.840;2024-02-16T06:01:36;8.20;5.40;3.60